createdAt,value
2019-02-04T00:00:00.781Z,100.00
2019-02-04T00:02:39.217Z,100.00
2019-02-04T00:05:10.629Z,100.00
2019-02-04T00:07:41.364Z,100.00
2019-02-04T00:10:12.130Z,100.00
2019-02-04T00:12:46.518Z,100.00
2019-02-04T00:15:17.192Z,100.00
2019-02-04T00:17:47.941Z,100.00
2019-02-04T00:20:21.317Z,100.00
2019-02-04T00:22:51.714Z,100.00
2019-02-04T00:25:25.232Z,100.00
2019-02-04T00:27:56.000Z,100.00
2019-02-04T00:30:26.533Z,100.00
2019-02-04T00:32:56.796Z,100.00
2019-02-04T00:35:28.373Z,100.00
2019-02-04T00:37:58.899Z,100.00
2019-02-04T00:40:30.110Z,100.00
2019-02-04T00:43:03.569Z,100.00
2019-02-04T00:45:36.734Z,100.00
2019-02-04T00:48:07.699Z,100.00
2019-02-04T00:50:38.028Z,100.00
2019-02-04T00:53:08.877Z,100.00
2019-02-04T00:55:39.270Z,100.00
2019-02-04T00:58:10.071Z,100.00
2019-02-04T01:00:40.530Z,100.00
2019-02-04T01:03:11.087Z,100.00
2019-02-04T01:05:41.486Z,100.00
2019-02-04T01:08:11.995Z,100.00
2019-02-04T01:10:42.404Z,100.00
2019-02-04T01:13:12.843Z,100.00
2019-02-04T01:15:43.234Z,100.00
2019-02-04T01:18:16.701Z,100.00
2019-02-04T01:20:47.159Z,100.00
2019-02-04T01:23:17.729Z,100.00
2019-02-04T01:25:49.757Z,100.00
2019-02-04T01:28:20.202Z,100.00
2019-02-04T01:30:50.627Z,100.00
2019-02-04T01:33:21.122Z,100.00
2019-02-04T01:35:51.445Z,100.00
2019-02-04T01:38:21.892Z,100.00
2019-02-04T01:40:57.486Z,100.00
2019-02-04T01:43:29.320Z,100.00
2019-02-04T01:45:59.755Z,100.00
2019-02-04T01:48:30.194Z,100.00
2019-02-04T01:51:04.127Z,100.00
2019-02-04T01:53:34.475Z,100.00
2019-02-04T01:56:05.368Z,100.00
2019-02-04T01:58:35.739Z,100.00
2019-02-04T02:01:07.615Z,100.00
2019-02-04T02:03:39.628Z,100.00
2019-02-04T02:06:09.986Z,100.00
2019-02-04T02:08:41.793Z,100.00
2019-02-04T02:11:12.182Z,100.00
2019-02-04T02:13:42.598Z,100.00
2019-02-04T02:16:13.027Z,100.00
2019-02-04T02:18:43.389Z,100.00
2019-02-04T02:21:14.133Z,100.00
2019-02-04T02:23:44.608Z,100.00
2019-02-04T02:26:15.212Z,100.00
2019-02-04T02:28:49.542Z,100.00
2019-02-04T02:31:19.940Z,100.00
2019-02-04T02:33:53.631Z,100.00
2019-02-04T02:36:24.665Z,100.00
2019-02-04T02:38:55.242Z,100.00
2019-02-04T02:41:25.969Z,100.00
2019-02-04T02:43:56.558Z,100.00
2019-02-04T02:46:27.293Z,100.00
2019-02-04T02:48:58.103Z,100.00
2019-02-04T02:51:28.502Z,100.00
2019-02-04T02:53:58.926Z,100.00
2019-02-04T02:56:31.595Z,100.00
2019-02-04T02:59:02.238Z,100.00
2019-02-04T03:01:32.611Z,100.00
2019-02-04T03:04:02.925Z,100.00
2019-02-04T03:06:33.522Z,100.00
2019-02-04T03:09:05.679Z,100.00
2019-02-04T03:11:36.073Z,100.00
2019-02-04T03:14:06.914Z,100.00
2019-02-04T03:16:37.271Z,100.00
2019-02-04T03:19:10.596Z,100.00
2019-02-04T03:21:40.821Z,100.00
2019-02-04T03:24:11.289Z,100.00
2019-02-04T03:26:41.537Z,100.00
2019-02-04T03:29:12.261Z,100.00
2019-02-04T03:31:46.050Z,100.00
2019-02-04T03:34:14.739Z,100.00
2019-02-04T03:36:45.119Z,100.00
2019-02-04T03:39:15.929Z,100.00
2019-02-04T03:41:46.293Z,100.00
2019-02-04T03:44:16.776Z,100.00
2019-02-04T03:46:47.406Z,100.00
2019-02-04T03:49:17.912Z,100.00
2019-02-04T03:51:48.352Z,100.00
2019-02-04T03:54:18.846Z,100.00
2019-02-04T03:56:49.351Z,100.00
2019-02-04T03:59:20.717Z,100.00
2019-02-04T04:01:54.098Z,100.00
2019-02-04T04:04:26.200Z,100.00
2019-02-04T04:06:56.957Z,100.00
2019-02-04T04:09:27.647Z,100.00
2019-02-04T04:11:58.035Z,100.00
2019-02-04T04:14:28.494Z,100.00
2019-02-04T04:16:59.016Z,100.00
2019-02-04T04:19:34.689Z,100.00
2019-02-04T04:22:05.221Z,100.00
2019-02-04T04:24:35.655Z,100.00
2019-02-04T04:27:25.293Z,100.00
2019-02-04T04:29:58.234Z,100.00
2019-02-04T04:32:30.101Z,100.00
2019-02-04T04:35:01.363Z,100.00
2019-02-04T04:37:32.130Z,100.00
2019-02-04T04:40:05.897Z,100.00
2019-02-04T04:42:37.116Z,100.00
2019-02-04T04:45:09.469Z,100.00
2019-02-04T04:47:45.288Z,100.00
2019-02-04T04:50:16.206Z,100.00
2019-02-04T04:52:46.791Z,100.00
2019-02-04T04:55:19.489Z,100.00
2019-02-04T04:57:50.346Z,100.00
2019-02-04T05:00:22.956Z,100.00
2019-02-04T05:02:53.425Z,100.00
2019-02-04T05:05:23.901Z,100.00
2019-02-04T05:07:54.435Z,100.00
2019-02-04T05:10:25.034Z,100.00
2019-02-04T05:12:55.391Z,100.00
2019-02-04T05:15:27.627Z,100.00
2019-02-04T05:17:58.020Z,100.00
2019-02-04T05:20:28.771Z,100.00
2019-02-04T05:22:59.237Z,100.00
2019-02-04T05:25:32.012Z,100.00
2019-02-04T05:28:05.938Z,100.00
2019-02-04T05:30:38.654Z,100.00
2019-02-04T05:33:13.029Z,100.00
2019-02-04T05:35:45.539Z,100.00
2019-02-04T05:38:17.047Z,100.00
2019-02-04T05:40:48.291Z,100.00
2019-02-04T05:43:18.638Z,100.00
2019-02-04T05:45:49.054Z,100.00
2019-02-04T05:48:19.473Z,100.00
2019-02-04T05:50:50.187Z,100.00
2019-02-04T05:53:21.589Z,100.00
2019-02-04T05:55:51.989Z,100.00
2019-02-04T05:58:22.344Z,100.00
2019-02-04T06:00:52.801Z,100.00
2019-02-04T06:03:23.120Z,100.00
2019-02-04T06:05:56.289Z,100.00
2019-02-04T06:08:26.855Z,100.00
2019-02-04T06:10:57.368Z,100.00
2019-02-04T06:13:27.675Z,100.00
2019-02-04T06:15:58.099Z,100.00
2019-02-04T06:18:28.836Z,100.00
2019-02-04T06:21:02.000Z,100.00
2019-02-04T06:23:32.504Z,100.00
2019-02-04T06:26:11.990Z,100.00
2019-02-04T06:28:42.625Z,100.00
2019-02-04T06:31:16.165Z,100.00
2019-02-04T06:33:47.797Z,100.00
2019-02-04T06:36:18.693Z,100.00
2019-02-04T06:38:49.704Z,100.00
2019-02-04T06:41:20.058Z,100.00
2019-02-04T06:43:57.516Z,100.00
2019-02-04T06:46:27.887Z,100.00
2019-02-04T06:48:58.314Z,100.00
2019-02-04T06:51:28.759Z,100.00
2019-02-04T06:53:59.451Z,100.00
2019-02-04T06:56:29.901Z,100.00
2019-02-04T06:59:00.424Z,100.00
2019-02-04T07:01:31.098Z,100.00
2019-02-04T07:04:01.514Z,100.00
2019-02-04T07:06:33.380Z,100.00
2019-02-04T07:09:21.062Z,100.00
2019-02-04T07:11:51.555Z,100.00
2019-02-04T07:14:23.919Z,100.00
2019-02-04T07:16:56.769Z,100.00
2019-02-04T07:19:29.946Z,100.00
2019-02-04T07:22:00.285Z,100.00
2019-02-04T07:24:42.139Z,100.00
2019-02-04T07:27:03.977Z,100.00
2019-02-04T07:29:37.479Z,100.00
2019-02-04T07:32:07.828Z,100.00
2019-02-04T07:34:38.297Z,100.00
2019-02-04T07:37:08.774Z,100.00
2019-02-04T07:39:39.312Z,100.00
2019-02-04T07:42:10.140Z,100.00
2019-02-04T07:44:44.182Z,100.00
2019-02-04T07:47:17.368Z,100.00
2019-02-04T07:49:47.976Z,100.00
2019-02-04T07:52:21.086Z,100.00
2019-02-04T07:54:51.803Z,100.00
2019-02-04T07:57:28.366Z,100.00
2019-02-04T07:59:59.062Z,100.00
2019-02-04T08:02:30.540Z,100.00
2019-02-04T08:05:01.416Z,100.00
2019-02-04T08:07:31.803Z,100.00
2019-02-04T08:10:02.770Z,100.00
2019-02-04T08:12:33.492Z,100.00
2019-02-04T08:15:09.943Z,100.00
2019-02-04T08:17:42.113Z,100.00
2019-02-04T08:20:12.565Z,100.00
2019-02-04T08:22:43.145Z,100.00
2019-02-04T08:25:14.276Z,100.00
2019-02-04T08:27:44.799Z,100.00
2019-02-04T08:30:22.220Z,100.00
2019-02-04T08:32:52.908Z,100.00
2019-02-04T08:35:25.570Z,100.00
2019-02-04T08:37:56.513Z,100.00
2019-02-04T08:40:26.996Z,100.00
2019-02-04T08:43:00.570Z,100.00
2019-02-04T08:45:31.053Z,100.00
2019-02-04T08:48:04.471Z,100.00
2019-02-04T08:50:35.548Z,100.00
2019-02-04T08:53:07.146Z,100.00
2019-02-04T08:55:37.927Z,100.00
2019-02-04T08:58:10.759Z,100.00
2019-02-04T09:00:45.152Z,100.00
2019-02-04T09:03:15.570Z,99.63
2019-02-04T09:05:45.957Z,98.19
2019-02-04T09:08:16.709Z,97.78
2019-02-04T09:10:47.294Z,97.44
2019-02-04T09:13:17.935Z,97.64
2019-02-04T09:15:48.533Z,97.99
2019-02-04T09:18:19.621Z,97.60
2019-02-04T09:20:50.204Z,97.45
2019-02-04T09:23:22.058Z,96.95
2019-02-04T09:25:52.996Z,96.53
2019-02-04T09:28:26.307Z,96.54
2019-02-04T09:30:56.882Z,96.73
2019-02-04T09:33:27.429Z,95.92
2019-02-04T09:35:58.352Z,95.30
2019-02-04T09:38:28.901Z,94.70
2019-02-04T09:40:59.631Z,94.86
2019-02-04T09:43:30.912Z,94.49
2019-02-04T09:46:01.381Z,94.74
2019-02-04T09:48:32.014Z,94.20
2019-02-04T09:51:03.138Z,94.00
2019-02-04T09:53:33.881Z,93.38
2019-02-04T09:56:04.333Z,93.28
2019-02-04T09:58:34.839Z,93.27
2019-02-04T10:01:06.799Z,92.73
2019-02-04T10:03:37.276Z,92.49
2019-02-04T10:06:07.792Z,92.54
2019-02-04T10:08:41.055Z,91.30
2019-02-04T10:11:11.620Z,91.29
2019-02-04T10:13:48.033Z,90.16
2019-02-04T10:16:18.519Z,91.10
2019-02-04T10:18:49.050Z,91.90
2019-02-04T10:21:19.681Z,89.44
2019-02-04T10:23:50.101Z,89.26
2019-02-04T10:26:20.512Z,89.73
2019-02-04T10:28:50.953Z,88.90
2019-02-04T10:31:21.352Z,88.49
2019-02-04T10:33:51.966Z,87.20
2019-02-04T10:36:22.392Z,86.81
2019-02-04T10:38:55.691Z,87.08
2019-02-04T10:41:26.401Z,86.97
2019-02-04T10:43:59.170Z,86.66
2019-02-04T10:46:32.436Z,87.43
2019-02-04T10:49:02.945Z,86.04
2019-02-04T10:51:33.667Z,85.75
2019-02-04T10:54:05.056Z,84.93
2019-02-04T10:56:35.943Z,84.17
2019-02-04T10:59:06.846Z,83.60
2019-02-04T11:01:37.251Z,83.50
2019-02-04T11:04:07.602Z,82.55
2019-02-04T11:06:38.289Z,82.55
2019-02-04T11:09:10.123Z,83.06
2019-02-04T11:11:40.705Z,81.56
2019-02-04T11:14:12.663Z,78.84
2019-02-04T11:16:45.401Z,79.63
2019-02-04T11:19:15.864Z,80.19
2019-02-04T11:21:47.513Z,79.46
2019-02-04T11:24:18.097Z,78.76
2019-02-04T11:26:48.487Z,78.29
2019-02-04T11:29:18.992Z,78.93
2019-02-04T11:31:51.798Z,78.67
2019-02-04T11:34:22.205Z,77.41
2019-02-04T11:36:53.128Z,78.03
2019-02-04T11:39:23.643Z,77.87
2019-02-04T11:41:54.228Z,77.03
2019-02-04T11:44:24.863Z,78.12
2019-02-04T11:46:55.306Z,77.94
2019-02-04T11:49:25.745Z,76.30
2019-02-04T11:51:56.522Z,77.53
2019-02-04T11:54:27.231Z,75.00
2019-02-04T11:56:57.936Z,71.55
2019-02-04T11:59:31.386Z,70.84
2019-02-04T12:02:01.895Z,71.79
2019-02-04T12:04:32.267Z,69.13
2019-02-04T12:07:02.728Z,69.75
2019-02-04T12:09:34.132Z,69.71
2019-02-04T12:12:04.509Z,69.12
2019-02-04T12:14:35.124Z,67.38
2019-02-04T12:17:05.497Z,66.34
2019-02-04T12:19:36.110Z,65.89
2019-02-04T12:22:06.587Z,65.85
2019-02-04T12:24:39.396Z,65.36
2019-02-04T12:27:12.173Z,65.69
2019-02-04T12:29:42.696Z,64.74
2019-02-04T12:32:13.225Z,64.06
2019-02-04T12:34:43.682Z,62.11
2019-02-04T12:37:14.112Z,59.41
2019-02-04T12:39:44.574Z,61.47
2019-02-04T12:42:14.966Z,61.37
2019-02-04T12:44:45.619Z,62.12
2019-02-04T12:47:16.098Z,60.13
2019-02-04T12:49:46.986Z,60.23
2019-02-04T12:52:17.328Z,62.04
2019-02-04T12:54:48.066Z,60.24
2019-02-04T12:57:18.449Z,60.77
2019-02-04T12:59:48.937Z,60.78
2019-02-04T13:02:19.479Z,60.66
2019-02-04T13:04:50.016Z,60.35
2019-02-04T13:07:20.624Z,57.19
2019-02-04T13:09:51.138Z,58.91
2019-02-04T13:12:21.589Z,55.83
2019-02-04T13:14:51.966Z,54.67
2019-02-04T13:17:22.261Z,54.29
2019-02-04T13:19:52.819Z,54.14
2019-02-04T13:22:24.509Z,55.07
2019-02-04T13:24:55.394Z,54.95
2019-02-04T13:27:26.563Z,54.54
2019-02-04T13:29:58.786Z,53.33
2019-02-04T13:32:29.408Z,53.04
2019-02-04T13:34:59.881Z,54.33
2019-02-04T13:37:30.461Z,51.72
2019-02-04T13:40:01.111Z,53.21
2019-02-04T13:42:32.327Z,52.41
2019-02-04T13:45:02.732Z,52.28
2019-02-04T13:47:33.697Z,52.32
2019-02-04T13:50:04.278Z,52.67
2019-02-04T13:52:35.116Z,54.16
2019-02-04T13:55:08.015Z,53.05
2019-02-04T13:57:38.431Z,53.79
2019-02-04T14:00:11.486Z,54.55
2019-02-04T14:02:42.011Z,53.71
2019-02-04T14:05:15.028Z,53.34
2019-02-04T14:07:45.751Z,54.73
2019-02-04T14:10:18.784Z,53.22
2019-02-04T14:12:49.236Z,54.92
2019-02-04T14:15:22.861Z,53.57
2019-02-04T14:17:53.289Z,54.23
2019-02-04T14:20:23.944Z,54.29
2019-02-04T14:22:57.222Z,53.49
2019-02-04T14:25:28.391Z,53.34
2019-02-04T14:27:58.792Z,54.25
2019-02-04T14:30:31.976Z,54.75
2019-02-04T14:33:02.341Z,53.60
2019-02-04T14:35:35.488Z,54.88
2019-02-04T14:38:09.166Z,54.11
2019-02-04T14:40:43.889Z,55.43
2019-02-04T14:43:21.002Z,55.32
2019-02-04T14:46:22.146Z,55.24
2019-02-04T14:49:17.768Z,53.90
2019-02-04T14:52:21.871Z,56.01
2019-02-04T14:55:39.440Z,55.67
2019-02-04T14:58:35.217Z,56.54
2019-02-04T15:02:05.493Z,56.82
2019-02-04T15:05:06.944Z,56.22
2019-02-04T15:08:14.386Z,59.78
2019-02-04T15:10:59.976Z,58.69
2019-02-04T15:13:56.252Z,58.90
2019-02-04T15:16:33.942Z,59.22
2019-02-04T15:19:38.683Z,59.98
2019-02-04T15:22:46.416Z,59.33
2019-02-04T15:25:51.636Z,61.34
2019-02-04T15:28:32.606Z,59.44
2019-02-04T15:31:38.512Z,59.15
2019-02-04T15:35:04.243Z,59.94
2019-02-04T15:37:54.932Z,59.68
2019-02-04T15:40:34.207Z,60.19
2019-02-04T15:43:54.342Z,59.51
2019-02-04T15:47:20.781Z,59.98
2019-02-04T15:50:36.237Z,59.46
2019-02-04T15:53:06.829Z,59.97
2019-02-04T15:55:39.985Z,59.88
2019-02-04T15:58:09.709Z,59.33
2019-02-04T16:00:40.267Z,60.00
2019-02-04T16:03:13.436Z,58.59
2019-02-04T16:05:44.777Z,58.84
2019-02-04T16:08:18.173Z,58.57
2019-02-04T16:10:53.114Z,59.26
2019-02-04T16:13:23.933Z,60.16
2019-02-04T16:15:54.925Z,60.25
2019-02-04T16:18:25.317Z,58.76
2019-02-04T16:20:56.519Z,58.84
2019-02-04T16:23:26.874Z,58.71
2019-02-04T16:25:57.352Z,59.55
2019-02-04T16:28:28.012Z,59.26
2019-02-04T16:30:58.463Z,59.96
2019-02-04T16:33:28.877Z,59.55
2019-02-04T16:35:59.292Z,60.63
2019-02-04T16:38:29.902Z,61.31
2019-02-04T16:41:00.671Z,60.41
2019-02-04T16:43:31.347Z,60.84
2019-02-04T16:46:01.854Z,59.72
2019-02-04T16:48:32.378Z,59.33
2019-02-04T16:51:11.322Z,59.70
2019-02-04T16:53:34.851Z,59.56
2019-02-04T16:56:05.349Z,60.22
2019-02-04T16:58:35.719Z,58.93
2019-02-04T17:01:06.601Z,59.13
2019-02-04T17:03:36.997Z,60.14
2019-02-04T17:06:09.186Z,59.99
2019-02-04T17:08:39.665Z,61.97
2019-02-04T17:11:10.068Z,59.82
2019-02-04T17:13:43.505Z,59.46
2019-02-04T17:16:13.934Z,60.74
2019-02-04T17:18:44.384Z,59.78
2019-02-04T17:21:14.941Z,59.64
2019-02-04T17:23:47.645Z,59.06
2019-02-04T17:26:18.137Z,59.51
2019-02-04T17:28:51.577Z,59.49
2019-02-04T17:31:25.035Z,59.39
2019-02-04T17:33:56.292Z,60.63
2019-02-04T17:36:26.744Z,60.31
2019-02-04T17:38:57.170Z,60.34
2019-02-04T17:41:27.720Z,59.95
2019-02-04T17:43:59.948Z,60.32
2019-02-04T17:46:30.707Z,59.49
2019-02-04T17:49:01.112Z,58.47
2019-02-04T17:51:32.046Z,59.57
2019-02-04T17:54:05.088Z,58.04
2019-02-04T17:56:35.178Z,58.36
2019-02-04T17:59:06.360Z,58.54
2019-02-04T18:01:36.891Z,59.28
2019-02-04T18:04:07.302Z,58.42
2019-02-04T18:06:37.951Z,58.79
2019-02-04T18:09:11.405Z,59.01
2019-02-04T18:11:42.592Z,58.53
2019-02-04T18:14:12.989Z,59.76
2019-02-04T18:16:43.856Z,59.14
2019-02-04T18:19:14.581Z,59.42
2019-02-04T18:21:47.354Z,59.15
2019-02-04T18:24:18.187Z,58.92
2019-02-04T18:26:48.775Z,60.10
2019-02-04T18:29:19.213Z,59.31
2019-02-04T18:31:52.338Z,59.56
2019-02-04T18:34:22.735Z,60.78
2019-02-04T18:36:53.194Z,59.95
2019-02-04T18:39:23.684Z,61.10
2019-02-04T18:41:55.656Z,61.40
2019-02-04T18:44:26.148Z,61.00
2019-02-04T18:46:56.473Z,61.41
2019-02-04T18:49:27.054Z,60.64
2019-02-04T18:51:57.533Z,60.91
2019-02-04T18:54:28.165Z,60.39
2019-02-04T18:56:58.688Z,61.98
2019-02-04T18:59:29.042Z,61.21
2019-02-04T19:01:59.507Z,60.04
2019-02-04T19:04:30.210Z,61.14
2019-02-04T19:07:02.144Z,61.15
2019-02-04T19:09:32.642Z,60.43
2019-02-04T19:12:03.067Z,60.96
2019-02-04T19:14:33.798Z,62.29
2019-02-04T19:17:04.182Z,61.07
2019-02-04T19:19:34.596Z,61.52
2019-02-04T19:22:05.135Z,61.14
2019-02-04T19:24:35.633Z,61.18
2019-02-04T19:27:06.064Z,62.06
2019-02-04T19:29:36.431Z,60.94
2019-02-04T19:32:10.138Z,61.12
2019-02-04T19:34:43.287Z,62.64
2019-02-04T19:37:16.793Z,62.67
2019-02-04T19:39:47.249Z,61.80
2019-02-04T19:42:17.934Z,62.13
2019-02-04T19:44:48.340Z,62.61
2019-02-04T19:47:18.812Z,63.07
2019-02-04T19:49:49.273Z,62.84
2019-02-04T19:52:22.269Z,62.43
2019-02-04T19:54:52.733Z,63.91
2019-02-04T19:57:23.080Z,63.97
2019-02-04T19:59:53.409Z,63.11
2019-02-04T20:02:24.008Z,62.83
2019-02-04T20:04:54.359Z,62.79
2019-02-04T20:07:25.120Z,62.82
2019-02-04T20:09:55.469Z,63.19
2019-02-04T20:12:25.923Z,63.40
2019-02-04T20:14:56.465Z,64.61
2019-02-04T20:17:26.841Z,62.75
2019-02-04T20:19:57.299Z,63.22
2019-02-04T20:22:27.727Z,63.37
2019-02-04T20:24:58.183Z,64.33
2019-02-04T20:27:28.866Z,63.86
2019-02-04T20:29:59.239Z,64.03
2019-02-04T20:32:29.680Z,63.91
2019-02-04T20:35:00.355Z,63.29
2019-02-04T20:37:30.702Z,62.98
2019-02-04T20:40:01.228Z,63.71
2019-02-04T20:42:31.784Z,63.99
2019-02-04T20:45:02.145Z,63.37
2019-02-04T20:47:32.723Z,63.33
2019-02-04T20:50:03.075Z,63.78
2019-02-04T20:52:33.629Z,62.79
2019-02-04T20:55:04.372Z,63.19
2019-02-04T20:57:34.734Z,63.60
2019-02-04T21:00:07.244Z,64.74
2019-02-04T21:02:37.889Z,63.09
2019-02-04T21:05:09.124Z,63.16
2019-02-04T21:07:39.604Z,63.14
2019-02-04T21:10:14.942Z,63.36
2019-02-04T21:12:45.909Z,63.46
2019-02-04T21:15:18.232Z,63.70
2019-02-04T21:17:48.646Z,63.92
2019-02-04T21:20:20.894Z,63.90
2019-02-04T21:22:54.205Z,64.26
2019-02-04T21:25:24.803Z,64.64
2019-02-04T21:27:55.471Z,64.21
2019-02-04T21:30:30.199Z,63.76
2019-02-04T21:33:01.052Z,63.44
2019-02-04T21:35:31.718Z,63.45
2019-02-04T21:38:02.213Z,63.23
2019-02-04T21:40:33.228Z,63.53
2019-02-04T21:43:03.564Z,64.13
2019-02-04T21:45:33.938Z,65.10
2019-02-04T21:48:04.261Z,65.50
2019-02-04T21:50:34.632Z,64.87
2019-02-04T21:53:04.933Z,64.97
2019-02-04T21:55:35.293Z,65.00
2019-02-04T21:58:06.547Z,65.39
2019-02-04T22:00:38.714Z,65.82
2019-02-04T22:03:09.131Z,65.83
2019-02-04T22:05:39.517Z,66.70
2019-02-04T22:08:09.959Z,67.64
2019-02-04T22:10:40.678Z,68.40
2019-02-04T22:13:10.987Z,69.64
2019-02-04T22:15:41.716Z,72.59
2019-02-04T22:18:12.094Z,74.03
2019-02-04T22:20:42.725Z,74.86
2019-02-04T22:23:13.777Z,75.05
2019-02-04T22:25:45.519Z,75.26
2019-02-04T22:28:15.973Z,76.25
2019-02-04T22:30:46.995Z,76.19
2019-02-04T22:33:18.177Z,76.19
2019-02-04T22:35:48.851Z,76.37
2019-02-04T22:38:19.271Z,77.88
2019-02-04T22:40:49.522Z,76.94
2019-02-04T22:43:19.990Z,77.48
2019-02-04T22:45:50.321Z,76.94
2019-02-04T22:48:20.778Z,77.46
2019-02-04T22:50:51.085Z,78.88
2019-02-04T22:53:21.482Z,79.31
2019-02-04T22:55:51.852Z,80.01
2019-02-04T22:58:22.474Z,80.73
2019-02-04T23:01:21.025Z,83.15
2019-02-04T23:03:51.694Z,86.12
2019-02-04T23:06:22.159Z,88.37
2019-02-04T23:08:52.615Z,90.43
2019-02-04T23:11:23.169Z,93.02
2019-02-04T23:13:57.998Z,93.02
2019-02-04T23:16:29.309Z,94.33
2019-02-04T23:18:59.866Z,95.56
2019-02-04T23:21:30.488Z,96.89
2019-02-04T23:24:01.122Z,99.07
2019-02-04T23:26:31.722Z,100.00
2019-02-04T23:29:02.468Z,100.00
2019-02-04T23:31:33.020Z,100.00
2019-02-04T23:34:03.851Z,100.00
2019-02-04T23:36:36.138Z,100.00
2019-02-04T23:39:09.113Z,100.00
2019-02-04T23:41:39.587Z,100.00
2019-02-04T23:44:09.947Z,100.00
2019-02-04T23:46:40.425Z,100.00
2019-02-04T23:49:11.944Z,100.00
2019-02-04T23:51:42.691Z,100.00
2019-02-04T23:54:13.218Z,100.00
2019-02-04T23:56:44.056Z,100.00
2019-02-04T23:59:14.501Z,100.00
